createdAt,value
2023-02-03T00:02:14.059Z,100.00
2023-02-03T00:08:19.186Z,100.00
2023-02-03T00:14:21.097Z,100.00
2023-02-03T00:20:23.665Z,100.00
2023-02-03T00:26:28.507Z,100.00
2023-02-03T00:32:30.711Z,100.00
2023-02-03T00:38:32.670Z,100.00
2023-02-03T00:44:34.614Z,100.00
2023-02-03T00:50:36.544Z,100.00
2023-02-03T00:56:38.450Z,100.00
2023-02-03T01:02:40.433Z,100.00
2023-02-03T01:08:43.405Z,100.00
2023-02-03T01:14:45.297Z,100.00
2023-02-03T01:20:47.156Z,100.00
2023-02-03T01:26:49.204Z,100.00
2023-02-03T01:32:51.163Z,100.00
2023-02-03T01:38:53.501Z,100.00
2023-02-03T01:44:55.808Z,100.00
2023-02-03T01:50:58.519Z,100.00
2023-02-03T01:57:15.961Z,100.00
2023-02-03T02:03:24.084Z,100.00
2023-02-03T02:09:27.516Z,100.00
2023-02-03T02:15:50.323Z,100.00
2023-02-03T02:22:02.916Z,100.00
2023-02-03T02:28:34.369Z,100.00
2023-02-03T02:35:14.138Z,100.00
2023-02-03T02:41:55.770Z,100.00
2023-02-03T02:48:15.295Z,100.00
2023-02-03T02:54:22.502Z,99.43
2023-02-03T03:00:24.862Z,99.77
2023-02-03T03:06:35.915Z,99.49
2023-02-03T03:12:50.896Z,100.00
2023-02-03T03:19:04.637Z,100.00
2023-02-03T03:25:24.942Z,100.00
2023-02-03T03:31:26.976Z,97.92
2023-02-03T03:37:55.697Z,96.88
2023-02-03T03:44:04.136Z,94.65
2023-02-03T03:50:12.391Z,94.66
2023-02-03T03:56:24.132Z,93.24
2023-02-03T04:02:26.869Z,92.72
2023-02-03T04:08:28.751Z,92.00
2023-02-03T04:14:35.446Z,92.03
2023-02-03T04:20:37.374Z,90.98
2023-02-03T04:26:40.603Z,90.13
2023-02-03T04:32:42.525Z,89.39
2023-02-03T04:38:44.400Z,89.46
2023-02-03T04:44:46.278Z,88.61
2023-02-03T04:50:48.150Z,89.84
2023-02-03T04:56:50.116Z,89.53
2023-02-03T05:02:52.112Z,88.50
2023-02-03T05:08:54.283Z,88.72
2023-02-03T05:14:56.266Z,89.16
2023-02-03T05:20:58.158Z,88.26
2023-02-03T05:27:00.021Z,89.01
2023-02-03T05:33:01.914Z,88.42
2023-02-03T05:39:03.861Z,87.89
2023-02-03T05:45:06.337Z,87.90
2023-02-03T05:51:08.210Z,88.44
2023-02-03T05:57:10.148Z,88.15
2023-02-03T06:03:12.100Z,87.84
2023-02-03T06:09:14.023Z,87.35
2023-02-03T06:15:16.607Z,87.46
2023-02-03T06:21:19.281Z,86.33
2023-02-03T06:27:21.186Z,86.66
2023-02-03T06:33:23.408Z,86.84
2023-02-03T06:39:25.343Z,86.93
2023-02-03T06:45:27.284Z,87.45
2023-02-03T06:51:29.161Z,88.16
2023-02-03T06:57:31.433Z,89.22
2023-02-03T07:03:33.380Z,90.24
2023-02-03T07:09:35.280Z,91.04
2023-02-03T07:15:37.269Z,91.75
2023-02-03T07:21:39.201Z,92.33
2023-02-03T07:27:41.134Z,93.10
2023-02-03T07:33:43.030Z,93.69
2023-02-03T07:39:46.065Z,95.22
2023-02-03T07:45:48.117Z,97.39
2023-02-03T07:51:49.989Z,100.00
2023-02-03T07:57:54.980Z,100.00
2023-02-03T08:03:56.840Z,100.00
2023-02-03T08:09:58.763Z,100.00
2023-02-03T08:16:00.944Z,100.00
2023-02-03T08:22:02.920Z,100.00
2023-02-03T08:28:05.098Z,100.00
2023-02-03T08:34:06.996Z,98.86
2023-02-03T08:40:10.497Z,97.64
2023-02-03T08:46:13.077Z,97.36
2023-02-03T08:52:17.405Z,96.50
2023-02-03T08:58:20.657Z,97.69
2023-02-03T09:04:25.572Z,97.33
2023-02-03T09:10:28.137Z,97.40
2023-02-03T09:16:31.011Z,97.27
2023-02-03T09:22:33.005Z,96.18
2023-02-03T09:28:35.911Z,95.75
2023-02-03T09:34:40.501Z,96.07
2023-02-03T09:40:42.462Z,96.69
2023-02-03T09:46:50.348Z,96.64
2023-02-03T09:52:53.001Z,96.09
2023-02-03T09:58:55.417Z,94.69
2023-02-03T10:05:16.777Z,96.24
2023-02-03T10:11:49.909Z,100.00
2023-02-03T10:18:00.534Z,100.00
2023-02-03T10:24:17.821Z,100.00
2023-02-03T10:30:21.343Z,100.00
2023-02-03T10:36:28.764Z,100.00
2023-02-03T10:43:03.203Z,100.00
2023-02-03T10:49:05.457Z,100.00
2023-02-03T10:55:21.135Z,100.00
2023-02-03T11:01:49.246Z,100.00
2023-02-03T11:07:52.442Z,100.00
2023-02-03T11:14:16.383Z,100.00
2023-02-03T11:20:18.757Z,100.00
2023-02-03T11:26:29.606Z,100.00
2023-02-03T11:32:41.510Z,100.00
2023-02-03T11:38:44.783Z,100.00
2023-02-03T11:44:46.677Z,100.00
2023-02-03T11:51:14.352Z,100.00
2023-02-03T11:57:37.624Z,100.00
2023-02-03T12:04:20.094Z,100.00
2023-02-03T12:10:39.826Z,100.00
2023-02-03T12:17:05.981Z,99.86
2023-02-03T12:23:34.988Z,97.09
2023-02-03T12:29:47.019Z,94.11
2023-02-03T12:35:59.938Z,91.56
2023-02-03T12:42:25.836Z,89.37
2023-02-03T12:48:44.413Z,87.40
2023-02-03T12:55:20.733Z,86.62
2023-02-03T13:01:38.662Z,86.03
2023-02-03T13:07:59.845Z,84.70
2023-02-03T13:14:33.274Z,84.67
2023-02-03T13:20:37.199Z,85.22
2023-02-03T13:26:51.230Z,84.66
2023-02-03T13:33:17.621Z,86.40
2023-02-03T13:39:52.878Z,86.70
2023-02-03T13:45:55.414Z,87.93
2023-02-03T13:51:57.719Z,86.80
2023-02-03T13:58:00.476Z,87.93
2023-02-03T14:04:05.068Z,90.20
2023-02-03T14:10:15.988Z,89.69
2023-02-03T14:16:25.574Z,84.19
2023-02-03T14:22:28.024Z,83.13
2023-02-03T14:28:41.655Z,83.62
2023-02-03T14:34:50.626Z,84.22
2023-02-03T14:41:04.751Z,81.84
2023-02-03T14:47:16.897Z,79.42
2023-02-03T14:53:40.509Z,74.12
2023-02-03T15:00:29.669Z,72.33
2023-02-03T15:06:48.255Z,72.59
2023-02-03T15:12:53.428Z,73.28
2023-02-03T15:19:16.611Z,75.41
2023-02-03T15:25:22.097Z,78.87
2023-02-03T15:31:44.795Z,79.58
2023-02-03T15:38:14.341Z,79.00
2023-02-03T15:44:42.026Z,77.38
2023-02-03T15:50:55.113Z,75.71
2023-02-03T15:57:11.003Z,74.01
2023-02-03T16:03:37.478Z,72.58
2023-02-03T16:09:42.663Z,72.42
2023-02-03T16:15:44.682Z,73.42
2023-02-03T16:21:52.190Z,74.47
2023-02-03T16:28:27.879Z,75.75
2023-02-03T16:34:49.616Z,78.56
2023-02-03T16:41:10.165Z,78.59
2023-02-03T16:47:46.490Z,79.92
2023-02-03T16:53:48.524Z,79.07
2023-02-03T16:59:50.548Z,76.49
2023-02-03T17:05:53.126Z,75.49
2023-02-03T17:11:55.063Z,76.08
2023-02-03T17:17:58.616Z,74.61
2023-02-03T17:24:00.616Z,74.13
2023-02-03T17:30:02.937Z,73.57
2023-02-03T17:36:12.420Z,72.59
2023-02-03T17:54:54.298Z,73.24
2023-02-03T18:00:56.226Z,74.53
2023-02-03T18:06:58.159Z,73.15
2023-02-03T18:13:00.029Z,73.64
2023-02-03T18:19:07.756Z,74.51
2023-02-03T18:25:10.018Z,75.29
2023-02-03T18:31:17.463Z,74.10
2023-02-03T18:37:19.491Z,75.46
2023-02-03T18:43:22.470Z,74.90
2023-02-03T18:49:24.479Z,75.27
2023-02-03T18:55:26.394Z,76.03
2023-02-03T19:01:30.969Z,75.14
2023-02-03T19:07:32.903Z,75.75
2023-02-03T19:13:34.826Z,74.61
2023-02-03T19:19:37.104Z,74.21
2023-02-03T19:25:39.734Z,76.48
2023-02-03T19:31:41.720Z,76.24
2023-02-03T19:37:43.832Z,76.84
2023-02-03T19:43:47.538Z,76.92
2023-02-03T19:49:49.696Z,76.61
2023-02-03T19:55:52.223Z,77.86
2023-02-03T20:01:55.389Z,77.34
2023-02-03T20:07:58.466Z,78.01
2023-02-03T20:14:00.401Z,77.97
2023-02-03T20:20:02.425Z,78.27
2023-02-03T20:26:04.532Z,77.46
2023-02-03T20:32:07.324Z,78.91
2023-02-03T20:38:09.340Z,79.20
2023-02-03T20:44:13.772Z,80.25
2023-02-03T20:50:31.467Z,82.18
2023-02-03T20:56:36.658Z,83.92
2023-02-03T21:02:56.974Z,87.35
2023-02-03T21:09:19.136Z,90.59
2023-02-03T21:15:28.494Z,91.10
2023-02-03T21:21:40.341Z,91.46
2023-02-03T21:27:47.200Z,92.79
2023-02-03T21:33:49.300Z,92.85
2023-02-03T21:39:51.305Z,92.55
2023-02-03T21:45:53.391Z,93.85
2023-02-03T21:51:55.299Z,95.65
2023-02-03T21:57:57.183Z,95.30
2023-02-03T22:04:01.470Z,95.11
2023-02-03T22:10:03.520Z,94.54
2023-02-03T22:16:06.263Z,94.47
2023-02-03T22:22:08.152Z,93.43
2023-02-03T22:28:10.194Z,92.97
2023-02-03T22:34:12.226Z,92.34
2023-02-03T22:40:14.255Z,93.00
2023-02-03T22:46:16.233Z,93.99
2023-02-03T22:52:18.188Z,93.74
2023-02-03T22:58:20.124Z,93.97
2023-02-03T23:04:22.973Z,93.12
2023-02-03T23:10:30.777Z,92.89
2023-02-03T23:16:33.033Z,92.11
2023-02-03T23:22:35.437Z,91.91
2023-02-03T23:28:37.296Z,91.18
2023-02-03T23:34:58.102Z,91.15
2023-02-03T23:41:00.001Z,91.67
2023-02-03T23:47:02.304Z,91.66
2023-02-03T23:53:04.612Z,91.17
2023-02-03T23:59:06.574Z,91.08
